createdAt,value
2017-11-08T00:02:10.513Z,97538.23
2017-11-08T00:04:39.473Z,97532.28
2017-11-08T00:07:08.336Z,97525.90
2017-11-08T00:09:38.660Z,97523.58
2017-11-08T00:12:08.328Z,97523.52
2017-11-08T00:14:38.428Z,97513.34
2017-11-08T00:17:08.473Z,97513.47
2017-11-08T00:19:38.623Z,97513.59
2017-11-08T00:22:15.067Z,97511.34
2017-11-08T00:24:44.592Z,97506.66
2017-11-08T00:27:13.392Z,97512.58
2017-11-08T00:29:42.581Z,97520.20
2017-11-08T00:32:11.406Z,97521.84
2017-11-08T00:34:40.565Z,97523.50
2017-11-08T00:37:10.164Z,97529.06
2017-11-08T00:39:38.956Z,97529.17
2017-11-08T00:42:09.365Z,97526.53
2017-11-08T00:44:38.397Z,97518.56
2017-11-08T00:47:07.564Z,97511.55
2017-11-08T00:49:36.581Z,97511.52
2017-11-08T00:52:06.132Z,97515.06
2017-11-08T00:54:34.919Z,97501.09
2017-11-08T00:57:03.779Z,97495.32
2017-11-08T00:59:32.686Z,97496.00
2017-11-08T01:02:02.694Z,97492.97
2017-11-08T01:04:31.493Z,97493.75
2017-11-08T01:07:00.384Z,97496.99
2017-11-08T01:09:29.342Z,97488.71
2017-11-08T01:11:59.132Z,97486.41
2017-11-08T01:14:27.937Z,97490.50
2017-11-08T01:16:56.628Z,97486.25
2017-11-08T01:19:25.744Z,97482.20
2017-11-08T01:21:54.566Z,97478.65
2017-11-08T01:24:23.440Z,97473.22
2017-11-08T01:26:52.273Z,97466.59
2017-11-08T01:29:22.124Z,97462.44
2017-11-08T01:31:51.062Z,97456.89
2017-11-08T01:34:19.867Z,97452.77
2017-11-08T01:36:54.168Z,97448.09
2017-11-08T01:39:26.127Z,97443.69
2017-11-08T01:41:55.633Z,97440.02
2017-11-08T01:44:25.938Z,97430.78
2017-11-08T01:46:54.870Z,97431.20
2017-11-08T01:49:23.822Z,97429.89
2017-11-08T01:51:52.529Z,97428.59
2017-11-08T01:54:21.695Z,97424.47
2017-11-08T01:56:50.399Z,97419.52
2017-11-08T01:59:35.164Z,97422.16
2017-11-08T02:02:04.009Z,97425.92
2017-11-08T02:04:32.792Z,97428.05
2017-11-08T02:07:01.603Z,97422.38
2017-11-08T02:09:30.469Z,97424.78
2017-11-08T02:12:00.087Z,97423.05
2017-11-08T02:14:28.899Z,97418.77
2017-11-08T02:16:59.293Z,97418.27
2017-11-08T02:19:28.258Z,97409.59
2017-11-08T02:21:57.861Z,97408.52
2017-11-08T02:24:28.371Z,97404.66
2017-11-08T02:27:03.040Z,97412.36
2017-11-08T02:29:31.853Z,97417.41
2017-11-08T02:32:00.739Z,97424.05
2017-11-08T02:34:29.497Z,97422.89
2017-11-08T02:36:59.099Z,97417.60
2017-11-08T02:39:28.701Z,97413.20
2017-11-08T02:41:57.527Z,97411.69
2017-11-08T02:44:26.404Z,97407.94
2017-11-08T02:46:59.199Z,97414.84
2017-11-08T02:49:29.166Z,97421.83
2017-11-08T02:51:57.932Z,97428.13
2017-11-08T02:54:26.657Z,97425.27
2017-11-08T02:56:55.457Z,97423.30
2017-11-08T02:59:25.147Z,97423.92
2017-11-08T03:01:53.919Z,97425.14
2017-11-08T03:04:26.134Z,97416.71
2017-11-08T03:06:54.986Z,97411.74
2017-11-08T03:09:24.730Z,97412.08
2017-11-08T03:11:53.688Z,97412.46
2017-11-08T03:14:22.693Z,97412.94
2017-11-08T03:16:51.805Z,97408.60
2017-11-08T03:19:20.860Z,97416.50
2017-11-08T03:21:50.500Z,97413.87
2017-11-08T03:24:19.367Z,97422.09
2017-11-08T03:26:49.178Z,97416.02
2017-11-08T03:29:18.192Z,97416.06
2017-11-08T03:31:47.620Z,97428.26
2017-11-08T03:34:17.525Z,97431.52
2017-11-08T03:36:47.325Z,97432.53
2017-11-08T03:39:17.122Z,97433.34
2017-11-08T03:41:46.153Z,97431.62
2017-11-08T03:44:15.368Z,97426.37
2017-11-08T03:46:44.236Z,97429.00
2017-11-08T03:49:13.467Z,97421.44
2017-11-08T03:51:42.548Z,97422.95
2017-11-08T03:54:12.715Z,97422.48
2017-11-08T03:56:42.915Z,97416.48
2017-11-08T03:59:11.836Z,97417.25
2017-11-08T04:01:42.786Z,97421.09
2017-11-08T04:04:12.053Z,97414.16
2017-11-08T04:06:42.416Z,97414.59
2017-11-08T04:09:12.846Z,97417.17
2017-11-08T04:11:42.896Z,97419.57
2017-11-08T04:14:12.143Z,97411.17
2017-11-08T04:16:43.233Z,97405.37
2017-11-08T04:19:12.048Z,97403.48
2017-11-08T04:21:41.915Z,97394.75
2017-11-08T04:24:10.848Z,97397.91
2017-11-08T04:26:40.388Z,97393.27
2017-11-08T04:29:09.695Z,97405.35
2017-11-08T04:31:38.539Z,97406.18
2017-11-08T04:34:07.460Z,97404.87
2017-11-08T04:36:36.349Z,97403.30
2017-11-08T04:39:05.216Z,97405.59
2017-11-08T04:41:35.411Z,97407.88
2017-11-08T04:44:04.498Z,97411.67
2017-11-08T04:46:34.470Z,97407.07
2017-11-08T04:49:03.500Z,97414.48
2017-11-08T04:51:32.264Z,97412.34
2017-11-08T04:54:01.459Z,97410.53
2017-11-08T04:56:30.315Z,97414.95
2017-11-08T04:59:01.199Z,97415.76
2017-11-08T05:01:30.104Z,97417.36
2017-11-08T05:03:59.617Z,97417.84
2017-11-08T05:06:29.034Z,97408.04
2017-11-08T05:08:58.208Z,97405.63
2017-11-08T05:11:26.991Z,97407.78
2017-11-08T05:13:56.333Z,97409.22
2017-11-08T05:16:25.288Z,97404.66
2017-11-08T05:18:54.904Z,97411.56
2017-11-08T05:21:23.764Z,97408.55
2017-11-08T05:23:52.584Z,97411.30
2017-11-08T05:26:21.539Z,97409.98
2017-11-08T05:28:50.313Z,97412.74
2017-11-08T05:31:20.734Z,97411.95
2017-11-08T05:33:50.385Z,97417.08
2017-11-08T05:36:19.488Z,97417.20
2017-11-08T05:38:48.274Z,97415.16
2017-11-08T05:41:17.048Z,97415.64
2017-11-08T05:43:45.942Z,97412.66
2017-11-08T05:46:15.274Z,97418.29
2017-11-08T05:48:45.453Z,97417.66
2017-11-08T05:51:15.211Z,97404.68
2017-11-08T05:53:45.394Z,97407.72
2017-11-08T05:56:15.401Z,97414.34
2017-11-08T05:58:46.065Z,97411.22
2017-11-08T06:01:16.993Z,97409.36
2017-11-08T06:03:47.535Z,97411.60
2017-11-08T06:06:24.546Z,97416.19
2017-11-08T06:08:57.524Z,97413.66
2017-11-08T06:11:28.043Z,97408.56
2017-11-08T06:13:57.744Z,97407.66
2017-11-08T06:16:27.235Z,97416.99
2017-11-08T06:18:57.033Z,97416.48
2017-11-08T06:21:26.153Z,97414.87
2017-11-08T06:23:55.279Z,97416.75
2017-11-08T06:26:24.783Z,97414.22
2017-11-08T06:28:55.726Z,97414.34
2017-11-08T06:31:24.915Z,97414.97
2017-11-08T06:33:54.019Z,97414.98
2017-11-08T06:36:23.170Z,97413.33
2017-11-08T06:38:52.057Z,97414.91
2017-11-08T06:41:21.232Z,97405.27
2017-11-08T06:43:50.243Z,97411.46
2017-11-08T06:46:19.427Z,97405.53
2017-11-08T06:48:48.547Z,97406.76
2017-11-08T06:51:18.563Z,97404.44
2017-11-08T06:53:54.138Z,97403.13
2017-11-08T06:56:23.375Z,97414.23
2017-11-08T06:58:53.050Z,97419.78
2017-11-08T07:01:22.615Z,97424.05
2017-11-08T07:03:51.455Z,97426.09
2017-11-08T07:06:21.284Z,97429.98
2017-11-08T07:08:50.135Z,97442.23
2017-11-08T07:11:19.618Z,97445.20
2017-11-08T07:13:48.807Z,97441.25
2017-11-08T07:16:18.202Z,97435.80
2017-11-08T07:18:48.305Z,97435.65
2017-11-08T07:21:17.542Z,97432.69
2017-11-08T07:23:47.339Z,97442.48
2017-11-08T07:26:17.388Z,97445.56
2017-11-08T07:28:47.276Z,97444.48
2017-11-08T07:31:16.358Z,97446.33
2017-11-08T07:33:45.279Z,97438.02
2017-11-08T07:36:14.850Z,97440.13
2017-11-08T07:38:43.610Z,97434.42
2017-11-08T07:41:17.039Z,97436.89
2017-11-08T07:43:49.810Z,97430.70
2017-11-08T07:46:18.672Z,97431.91
2017-11-08T07:48:49.261Z,97436.70
2017-11-08T07:51:19.049Z,97435.69
2017-11-08T07:53:49.189Z,97440.15
2017-11-08T07:56:21.643Z,97440.03
2017-11-08T07:58:50.505Z,97445.09
2017-11-08T08:01:20.374Z,97437.69
2017-11-08T08:03:56.513Z,97436.89
2017-11-08T08:06:27.918Z,97441.09
2017-11-08T08:08:57.640Z,97440.45
2017-11-08T08:11:26.571Z,97436.09
2017-11-08T08:13:59.251Z,97438.95
2017-11-08T08:16:30.552Z,97444.22
2017-11-08T08:19:03.619Z,97439.00
2017-11-08T08:21:32.401Z,97443.04
2017-11-08T08:24:02.101Z,97442.51
2017-11-08T08:26:30.987Z,97444.73
2017-11-08T08:29:01.002Z,97443.67
2017-11-08T08:31:29.937Z,97439.45
2017-11-08T08:34:00.068Z,97432.65
2017-11-08T08:36:34.651Z,97438.06
2017-11-08T08:39:03.510Z,97440.34
2017-11-08T08:41:33.581Z,97442.52
2017-11-08T08:44:06.631Z,97446.72
2017-11-08T08:46:36.287Z,97454.77
2017-11-08T08:49:06.845Z,97449.66
2017-11-08T08:51:35.865Z,97453.27
2017-11-08T08:54:04.854Z,97457.55
2017-11-08T08:56:33.793Z,97455.42
2017-11-08T08:59:03.975Z,97461.47
2017-11-08T09:01:33.617Z,97463.47
2017-11-08T09:04:03.550Z,97466.34
2017-11-08T09:06:34.228Z,97466.02
2017-11-08T09:09:03.355Z,97473.50
2017-11-08T09:11:32.163Z,97473.58
2017-11-08T09:14:04.075Z,97470.61
2017-11-08T09:16:33.836Z,97472.58
2017-11-08T09:19:03.243Z,97473.26
2017-11-08T09:21:33.176Z,97470.15
2017-11-08T09:24:05.490Z,97478.59
2017-11-08T09:26:37.479Z,97483.17
2017-11-08T09:29:06.542Z,97476.66
2017-11-08T09:31:37.371Z,97480.41
2017-11-08T09:34:06.262Z,97488.97
2017-11-08T09:36:41.324Z,97486.59
2017-11-08T09:39:12.858Z,97491.59
2017-11-08T09:41:41.669Z,97481.91
2017-11-08T09:44:10.534Z,97475.30
2017-11-08T09:46:40.226Z,97480.08
2017-11-08T09:49:09.918Z,97475.65
2017-11-08T09:51:39.488Z,97471.50
2017-11-08T09:54:09.193Z,97487.55
2017-11-08T09:56:38.266Z,97486.71
2017-11-08T09:59:13.135Z,97480.55
2017-11-08T10:01:42.112Z,97485.97
2017-11-08T10:04:14.580Z,97483.89
2017-11-08T10:06:48.737Z,97476.77
2017-11-08T10:09:30.604Z,97477.03
2017-11-08T10:12:17.378Z,97478.27
2017-11-08T10:14:46.286Z,97485.31
2017-11-08T10:17:15.845Z,97485.55
2017-11-08T10:19:44.755Z,97484.45
2017-11-08T10:22:14.478Z,97478.39
2017-11-08T10:24:43.468Z,97472.92
2017-11-08T10:27:13.058Z,97479.27
2017-11-08T10:29:42.655Z,97487.80
2017-11-08T10:32:17.946Z,97478.61
2017-11-08T10:34:47.988Z,97471.77
2017-11-08T10:37:16.762Z,97479.00
2017-11-08T10:39:45.866Z,97490.05
2017-11-08T10:42:14.951Z,97476.75
2017-11-08T10:44:43.856Z,97478.86
2017-11-08T10:47:13.609Z,97477.97
2017-11-08T10:49:57.629Z,97467.16
2017-11-08T10:52:29.194Z,97469.05
2017-11-08T10:54:58.453Z,97466.00
2017-11-08T10:57:27.944Z,97464.34
2017-11-08T10:59:59.680Z,97463.88
2017-11-08T11:02:31.771Z,97464.29
2017-11-08T11:05:03.203Z,97467.95
2017-11-08T11:07:32.212Z,97468.10
2017-11-08T11:10:02.792Z,97468.61
2017-11-08T11:12:31.997Z,97468.00
2017-11-08T11:15:01.946Z,97477.47
2017-11-08T11:17:31.765Z,97484.55
2017-11-08T11:20:04.811Z,97485.44
2017-11-08T11:22:42.749Z,97477.27
2017-11-08T11:25:12.038Z,97459.52
2017-11-08T11:27:41.064Z,97454.78
2017-11-08T11:33:28.732Z,97456.56
2017-11-08T13:48:39.580Z,97473.86
2017-11-08T13:51:09.108Z,97476.16
2017-11-08T13:53:38.225Z,97470.84
2017-11-08T13:56:07.940Z,97470.25
2017-11-08T13:58:36.731Z,97478.80
2017-11-08T14:01:06.940Z,97476.03
2017-11-08T14:03:36.959Z,97479.23
2017-11-08T14:06:07.309Z,97476.84
2017-11-08T14:08:36.287Z,97481.83
2017-11-08T14:11:18.421Z,97482.02
2017-11-08T14:14:14.005Z,97483.30
2017-11-08T14:16:43.219Z,97487.71
2017-11-08T14:19:12.462Z,97488.79
2017-11-08T14:21:41.952Z,97482.34
2017-11-08T14:27:40.374Z,97483.47
2017-11-08T14:30:09.643Z,97485.98
2017-11-08T14:32:40.288Z,97489.14
2017-11-08T14:35:09.553Z,97496.57
2017-11-08T14:37:38.534Z,97502.31
2017-11-08T14:40:07.376Z,97512.27
2017-11-08T14:42:40.662Z,97515.62
2017-11-08T14:45:09.525Z,97513.18
2017-11-08T14:47:38.244Z,97526.58
2017-11-08T14:50:07.281Z,97525.03
2017-11-08T14:52:37.642Z,97520.22
2017-11-08T14:55:07.968Z,97522.07
2017-11-08T14:57:37.820Z,97525.27
2017-11-08T15:00:07.972Z,97528.50
2017-11-08T15:02:38.358Z,97532.86
2017-11-08T15:05:08.578Z,97534.38
2017-11-08T15:07:37.579Z,97532.33
2017-11-08T15:10:07.391Z,97532.78
2017-11-08T15:12:42.060Z,97534.30
2017-11-08T15:15:15.751Z,97531.44
2017-11-08T15:17:45.755Z,97534.05
2017-11-08T15:20:21.523Z,97527.85
2017-11-08T15:22:50.501Z,97520.61
2017-11-08T15:25:20.061Z,97531.14
2017-11-08T15:27:49.941Z,97528.12
2017-11-08T15:30:25.653Z,97528.73
2017-11-08T15:32:54.541Z,97529.02
2017-11-08T15:35:25.571Z,97537.02
2017-11-08T15:37:56.443Z,97546.44
2017-11-08T15:40:32.206Z,97551.83
2017-11-08T15:43:01.175Z,97546.36
2017-11-08T15:45:36.410Z,97554.46
2017-11-08T15:48:09.785Z,97559.20
2017-11-08T15:50:38.606Z,97557.05
2017-11-08T15:53:08.563Z,97563.00
2017-11-08T15:55:37.432Z,97562.16
2017-11-08T15:58:06.597Z,97567.43
2017-11-08T16:00:35.508Z,97563.08
2017-11-08T16:03:09.381Z,97567.56
2017-11-08T16:05:38.306Z,97566.05
2017-11-08T16:08:09.535Z,97568.06
2017-11-08T16:10:42.474Z,97569.92
2017-11-08T16:13:12.071Z,97572.48
2017-11-08T16:15:41.044Z,97572.61
2017-11-08T16:18:10.297Z,97572.30
2017-11-08T16:20:39.984Z,97577.72
2017-11-08T16:23:10.106Z,97581.06
2017-11-08T16:25:40.566Z,97576.03
2017-11-08T16:28:17.419Z,97585.31
2017-11-08T16:30:49.027Z,97581.80
2017-11-08T16:33:21.170Z,97588.19
2017-11-08T16:35:51.124Z,97591.43
2017-11-08T16:38:21.208Z,97593.89
2017-11-08T16:40:50.200Z,97596.52
2017-11-08T16:43:19.301Z,97596.29
2017-11-08T16:45:55.512Z,97599.09
2017-11-08T16:48:44.726Z,97594.91
2017-11-08T16:51:24.526Z,97596.26
2017-11-08T16:56:36.288Z,97600.14
2017-11-08T16:59:12.008Z,97610.77
2017-11-08T17:01:47.090Z,97609.63
2017-11-08T17:04:24.817Z,97607.09
2017-11-08T17:06:54.829Z,97609.55
2017-11-08T17:09:23.888Z,97616.47
2017-11-08T17:11:53.807Z,97619.20
2017-11-08T17:14:23.657Z,97630.84
2017-11-08T17:16:54.328Z,97627.23
2017-11-08T17:19:24.689Z,97628.78
2017-11-08T17:21:54.389Z,97634.05
2017-11-08T17:24:23.737Z,97621.86
2017-11-08T17:26:53.776Z,97623.92
2017-11-08T17:29:23.156Z,97619.95
2017-11-08T17:31:52.302Z,97621.50
2017-11-08T17:34:22.661Z,97624.77
2017-11-08T17:36:51.800Z,97626.25
2017-11-08T17:39:21.680Z,97622.84
2017-11-08T17:41:51.554Z,97630.13
2017-11-08T17:44:21.037Z,97624.23
2017-11-08T17:46:50.858Z,97624.23
2017-11-08T17:53:10.269Z,97621.59
2017-11-08T17:56:28.859Z,97623.11
2017-11-08T17:59:00.721Z,97624.61
2017-11-08T18:01:30.993Z,97630.49
2017-11-08T18:04:00.059Z,97629.72
2017-11-08T18:06:30.263Z,97623.88
2017-11-08T18:08:59.793Z,97628.95
2017-11-08T18:11:31.696Z,97635.81
2017-11-08T18:14:00.891Z,97632.69
2017-11-08T18:16:30.274Z,97646.31
2017-11-08T18:18:59.235Z,97642.18
2017-11-08T18:21:30.802Z,97643.20
2017-11-08T18:24:00.913Z,97644.63
2017-11-08T18:27:01.029Z,97646.80
2017-11-08T18:29:38.374Z,97649.24
2017-11-08T18:32:14.193Z,97651.27
2017-11-08T18:34:43.441Z,97654.23
2017-11-08T18:37:15.907Z,97654.91
2017-11-08T18:39:44.683Z,97659.02
2017-11-08T18:42:13.621Z,97659.45
2017-11-08T18:44:46.140Z,97661.75
2017-11-08T18:47:15.402Z,97657.26
2017-11-08T18:50:04.509Z,97660.34
2017-11-08T18:52:56.127Z,97666.77
2017-11-08T19:15:11.951Z,97688.29
2017-11-08T19:17:42.529Z,97684.64
2017-11-08T19:20:11.791Z,97687.08
2017-11-08T19:22:40.583Z,97692.75
2017-11-08T19:25:09.522Z,97696.53
2017-11-08T19:27:39.648Z,97695.88
2017-11-08T19:30:08.704Z,97701.70
2017-11-08T19:32:37.592Z,97707.27
2017-11-08T19:35:06.757Z,97705.50
2017-11-08T19:37:35.738Z,97712.27
2017-11-08T19:40:04.741Z,97711.55
2017-11-08T19:42:33.501Z,97712.13
2017-11-08T19:45:03.215Z,97705.50
2017-11-08T19:47:31.989Z,97708.73
2017-11-08T19:50:00.865Z,97713.75
2017-11-08T19:52:29.832Z,97708.80
2017-11-08T19:54:58.739Z,97715.36
2017-11-08T19:57:27.854Z,97720.06
2017-11-08T19:59:57.465Z,97715.81
2017-11-08T20:02:26.376Z,97720.30
2017-11-08T20:04:55.384Z,97721.62
2017-11-08T20:07:24.342Z,97722.79
2017-11-08T20:09:53.516Z,97726.69
2017-11-08T20:12:22.460Z,97724.98
2017-11-08T20:14:52.135Z,97727.25
2017-11-08T20:17:21.041Z,97726.37
2017-11-08T20:19:50.570Z,97728.02
2017-11-08T20:22:19.552Z,97731.11
2017-11-08T20:24:48.488Z,97735.77
2017-11-08T20:27:18.523Z,97736.92
2017-11-08T20:29:48.205Z,97732.73
2017-11-08T20:32:16.934Z,97742.34
2017-11-08T20:34:45.644Z,97748.16
2017-11-08T20:37:15.029Z,97744.52
2017-11-08T20:39:43.766Z,97754.01
2017-11-08T20:42:13.096Z,97749.95
2017-11-08T20:44:42.751Z,97755.02
2017-11-08T20:47:11.684Z,97755.88
2017-11-08T20:49:40.536Z,97760.73
2017-11-08T20:52:09.536Z,97751.13
2017-11-08T20:54:39.139Z,97748.70
2017-11-08T20:57:08.262Z,97742.70
2017-11-08T20:59:37.445Z,97742.39
2017-11-08T21:02:06.420Z,97740.88
2017-11-08T21:04:35.526Z,97744.55
2017-11-08T21:07:11.659Z,97746.89
2017-11-08T21:09:40.631Z,97748.70
2017-11-08T21:12:09.780Z,97743.86
2017-11-08T21:14:39.502Z,97748.20
2017-11-08T21:17:08.727Z,97744.77
2017-11-08T21:19:38.547Z,97746.08
2017-11-08T21:22:07.464Z,97748.09
2017-11-08T21:24:36.989Z,97753.97
2017-11-08T21:27:06.579Z,97755.78
2017-11-08T21:29:35.429Z,97755.77
2017-11-08T21:32:04.234Z,97750.88
2017-11-08T21:34:33.210Z,97752.09
2017-11-08T21:37:02.273Z,97752.64
2017-11-08T21:39:31.880Z,97751.53
2017-11-08T21:42:00.899Z,97753.56
2017-11-08T21:44:29.920Z,97754.21
2017-11-08T21:46:58.649Z,97754.77
2017-11-08T21:49:28.171Z,97753.66
2017-11-08T21:51:57.879Z,97750.02
2017-11-08T21:54:26.699Z,97758.80
2017-11-08T21:56:55.713Z,97763.91
2017-11-08T21:59:25.570Z,97764.17
2017-11-08T22:01:55.260Z,97757.24
2017-11-08T22:04:24.252Z,97764.52
2017-11-08T22:06:54.463Z,97764.57
2017-11-08T22:09:23.617Z,97766.59
2017-11-08T22:11:52.444Z,97771.19
2017-11-08T22:14:23.374Z,97766.19
2017-11-08T22:16:55.220Z,97766.55
2017-11-08T22:19:24.488Z,97771.84
2017-11-08T22:21:54.077Z,97768.72
2017-11-08T22:24:26.171Z,97772.60
2017-11-08T22:26:56.031Z,97768.72
2017-11-08T22:29:25.652Z,97767.45
2017-11-08T22:31:54.524Z,97767.15
2017-11-08T22:34:23.402Z,97771.70
2017-11-08T22:36:55.233Z,97775.45
2017-11-08T22:39:24.050Z,97776.60
2017-11-08T22:41:53.671Z,97779.33
2017-11-08T22:44:23.680Z,97768.20
2017-11-08T22:46:53.277Z,97770.84
2017-11-08T22:49:22.453Z,97773.02
2017-11-08T22:51:53.283Z,97770.03
2017-11-08T22:54:23.284Z,97767.76
2017-11-08T22:56:58.236Z,97767.80
2017-11-08T22:59:27.252Z,97771.44
2017-11-08T23:01:56.282Z,97769.16
2017-11-08T23:04:25.626Z,97769.38
2017-11-08T23:06:54.373Z,97777.56
2017-11-08T23:09:23.228Z,97776.55
2017-11-08T23:11:52.773Z,97774.22
2017-11-08T23:14:22.742Z,97777.41
2017-11-08T23:16:52.787Z,97778.87
2017-11-08T23:19:22.735Z,97780.80
2017-11-08T23:21:53.090Z,97780.49
2017-11-08T23:24:23.735Z,97782.87
2017-11-08T23:26:53.910Z,97778.62
2017-11-08T23:29:23.530Z,97777.97
2017-11-08T23:31:53.516Z,97777.31
2017-11-08T23:34:23.697Z,97777.00
2017-11-08T23:36:54.701Z,97776.55
2017-11-08T23:39:24.537Z,97774.28
2017-11-08T23:41:53.376Z,97780.29
2017-11-08T23:44:24.045Z,97780.29
2017-11-08T23:46:52.874Z,97777.84
2017-11-08T23:49:22.763Z,97775.62
2017-11-08T23:51:51.645Z,97784.47
2017-11-08T23:54:21.263Z,97776.17
2017-11-08T23:56:50.734Z,97778.80
2017-11-08T23:59:25.202Z,97780.27
